createdAt,value
2022-08-28T00:00:39.786Z,3.88
2022-08-28T00:06:41.545Z,4.03
2022-08-28T00:12:44.826Z,3.60
2022-08-28T00:18:47.237Z,3.53
2022-08-28T00:24:49.166Z,4.10
2022-08-28T00:30:54.638Z,3.65
2022-08-28T00:36:56.555Z,3.50
2022-08-28T00:43:00.386Z,3.80
2022-08-28T00:49:02.325Z,3.80
2022-08-28T00:55:25.130Z,3.95
2022-08-28T01:01:26.996Z,4.00
2022-08-28T01:07:28.942Z,4.20
2022-08-28T01:13:31.455Z,4.03
2022-08-28T01:19:41.567Z,4.63
2022-08-28T01:25:43.474Z,4.57
2022-08-28T01:31:45.267Z,4.40
2022-08-28T01:37:47.588Z,4.30
2022-08-28T01:43:49.353Z,5.10
2022-08-28T01:49:51.671Z,4.18
2022-08-28T01:55:56.067Z,5.05
2022-08-28T02:01:58.482Z,5.00
2022-08-28T02:08:02.409Z,5.10
2022-08-28T02:14:04.270Z,5.20
2022-08-28T02:20:07.416Z,4.82
2022-08-28T02:26:09.762Z,4.80
2022-08-28T02:32:12.613Z,4.60
2022-08-28T02:38:14.453Z,5.45
2022-08-28T02:44:17.308Z,4.43
2022-08-28T02:50:22.404Z,4.50
2022-08-28T02:56:24.702Z,4.82
2022-08-28T03:02:26.743Z,4.68
2022-08-28T03:08:29.098Z,5.10
2022-08-28T03:14:30.946Z,4.90
2022-08-28T03:20:32.922Z,4.75
2022-08-28T03:26:34.744Z,4.32
2022-08-28T03:32:37.376Z,4.88
2022-08-28T03:38:39.510Z,4.32
2022-08-28T03:44:41.241Z,4.25
2022-08-28T03:50:43.082Z,4.55
2022-08-28T03:56:45.559Z,5.20
2022-08-28T04:02:47.415Z,5.53
2022-08-28T04:08:49.796Z,4.90
2022-08-28T04:14:54.239Z,4.70
2022-08-28T04:21:07.798Z,5.30
2022-08-28T04:27:09.586Z,4.90
2022-08-28T04:33:11.523Z,4.80
2022-08-28T04:39:13.414Z,5.13
2022-08-28T04:45:15.283Z,5.10
2022-08-28T04:51:17.032Z,5.03
2022-08-28T04:57:18.793Z,4.93
2022-08-28T05:03:21.275Z,4.88
2022-08-28T05:09:23.034Z,5.57
2022-08-28T05:15:24.770Z,5.10
2022-08-28T05:21:27.737Z,4.50
2022-08-28T05:27:29.536Z,5.43
2022-08-28T05:33:31.529Z,4.85
2022-08-28T05:39:33.316Z,5.63
2022-08-28T05:45:35.116Z,4.88
2022-08-28T05:51:40.343Z,4.35
2022-08-28T05:57:42.158Z,4.93
2022-08-28T06:03:47.417Z,5.18
2022-08-28T06:09:49.387Z,4.65
2022-08-28T06:15:51.237Z,4.90
2022-08-28T06:21:58.723Z,5.07
2022-08-28T06:28:00.882Z,5.13
2022-08-28T06:34:03.159Z,5.15
2022-08-28T06:40:05.379Z,4.70
2022-08-28T06:46:07.996Z,5.15
2022-08-28T06:52:09.867Z,4.78
2022-08-28T06:58:13.116Z,4.40
2022-08-28T07:04:14.966Z,5.13
2022-08-28T07:10:16.985Z,4.05
2022-08-28T07:16:27.257Z,4.13
2022-08-28T07:22:29.660Z,4.07
2022-08-28T07:28:31.438Z,4.28
2022-08-28T07:34:39.031Z,4.25
2022-08-28T07:40:42.366Z,4.10
2022-08-28T07:46:44.583Z,3.42
2022-08-28T07:52:46.351Z,3.88
2022-08-28T07:58:48.558Z,3.63
2022-08-28T08:04:50.268Z,3.25
2022-08-28T08:11:11.365Z,3.05
2022-08-28T08:17:18.328Z,3.40
2022-08-28T08:23:20.071Z,3.25
2022-08-28T08:29:21.906Z,3.30
2022-08-28T08:35:23.773Z,3.35
2022-08-28T08:41:39.149Z,3.38
2022-08-28T08:47:48.090Z,4.00
2022-08-28T08:54:07.644Z,3.22
2022-08-28T09:00:15.729Z,3.10
2022-08-28T09:06:27.045Z,3.40
2022-08-28T09:12:31.516Z,3.05
2022-08-28T09:18:34.357Z,2.90
2022-08-28T09:24:38.951Z,2.97
2022-08-28T09:30:44.235Z,3.00
2022-08-28T09:36:46.503Z,2.60
2022-08-28T09:43:18.962Z,3.00
2022-08-28T09:49:27.766Z,2.47
2022-08-28T09:55:35.476Z,2.60
2022-08-28T10:07:57.755Z,2.88
2022-08-28T10:14:23.093Z,3.03
2022-08-28T10:21:00.576Z,3.08
2022-08-28T10:33:40.434Z,2.60
2022-08-28T10:45:53.265Z,2.88
2022-08-28T10:52:06.340Z,2.60
2022-08-28T10:58:24.984Z,3.28
2022-08-28T11:04:29.347Z,2.67
2022-08-28T11:10:36.940Z,3.20
2022-08-28T11:16:44.334Z,2.63
2022-08-28T11:23:01.734Z,2.88
2022-08-28T11:29:06.032Z,3.00
2022-08-28T11:35:29.457Z,3.15
2022-08-28T11:41:35.214Z,2.70
2022-08-28T11:47:45.259Z,2.60
2022-08-28T11:54:21.207Z,2.80
2022-08-28T12:00:22.952Z,2.15
2022-08-28T12:06:49.854Z,2.40
2022-08-28T12:13:05.762Z,2.25
2022-08-28T12:19:07.948Z,2.70
2022-08-28T12:25:27.451Z,2.42
2022-08-28T12:31:50.186Z,2.65
2022-08-28T12:37:55.033Z,2.45
2022-08-28T12:43:59.624Z,2.75
2022-08-28T12:50:25.860Z,2.38
2022-08-28T12:56:30.192Z,2.63
2022-08-28T13:02:34.027Z,2.55
2022-08-28T13:08:37.417Z,2.40
2022-08-28T13:14:43.393Z,2.40
2022-08-28T13:20:45.142Z,2.30
2022-08-28T13:26:47.987Z,2.38
2022-08-28T13:33:20.076Z,2.55
2022-08-28T13:39:22.799Z,2.22
2022-08-28T13:45:24.912Z,2.95
2022-08-28T13:51:27.037Z,2.35
2022-08-28T13:57:29.331Z,2.40
2022-08-28T14:03:37.893Z,2.72
2022-08-28T14:09:40.332Z,2.58
2022-08-28T14:15:43.136Z,2.65
2022-08-28T14:21:45.291Z,2.40
2022-08-28T14:27:47.110Z,2.60
2022-08-28T14:33:48.893Z,2.20
2022-08-28T14:39:51.087Z,2.78
2022-08-28T14:45:53.027Z,2.45
2022-08-28T14:51:56.721Z,2.70
2022-08-28T14:57:58.953Z,2.83
2022-08-28T15:04:00.730Z,2.55
2022-08-28T15:10:02.584Z,2.38
2022-08-28T15:16:15.482Z,2.42
2022-08-28T15:22:27.145Z,2.30
2022-08-28T15:28:29.354Z,2.00
2022-08-28T15:34:31.198Z,2.20
2022-08-28T15:40:52.084Z,2.20
2022-08-28T15:46:56.591Z,2.50
2022-08-28T15:52:58.904Z,1.98
2022-08-28T15:59:01.280Z,2.30
2022-08-28T16:05:03.097Z,1.90
2022-08-28T16:11:04.921Z,2.40
2022-08-28T16:17:10.805Z,2.58
2022-08-28T16:23:13.502Z,2.13
2022-08-28T16:29:15.239Z,2.08
2022-08-28T16:35:17.095Z,2.08
2022-08-28T16:41:22.901Z,2.22
2022-08-28T16:47:24.686Z,1.90
2022-08-28T16:53:27.349Z,2.10
2022-08-28T16:59:30.913Z,1.80
2022-08-28T17:05:32.648Z,2.08
2022-08-28T17:11:34.408Z,2.00
2022-08-28T17:17:36.560Z,2.05
2022-08-28T17:23:38.444Z,1.98
2022-08-28T17:29:40.353Z,2.33
2022-08-28T17:35:42.447Z,2.30
2022-08-28T17:41:44.324Z,1.95
2022-08-28T17:47:46.083Z,1.77
2022-08-28T17:53:47.855Z,1.83
2022-08-28T17:59:50.039Z,2.10
2022-08-28T18:05:51.777Z,2.20
2022-08-28T18:11:53.940Z,2.35
2022-08-28T18:17:56.038Z,1.90
2022-08-28T18:23:57.799Z,2.17
2022-08-28T18:29:59.566Z,1.90
2022-08-28T18:36:02.025Z,1.73
2022-08-28T18:42:04.030Z,2.15
2022-08-28T18:48:07.980Z,1.80
2022-08-28T18:54:10.901Z,1.95
2022-08-28T19:00:15.986Z,2.15
2022-08-28T19:06:17.922Z,1.95
2022-08-28T19:12:19.697Z,1.83
2022-08-28T19:18:21.505Z,1.95
2022-08-28T19:24:24.309Z,1.88
2022-08-28T19:30:28.251Z,2.22
2022-08-28T19:36:30.655Z,2.22
2022-08-28T19:42:32.503Z,2.50
2022-08-28T19:48:34.894Z,2.10
2022-08-28T19:54:38.606Z,2.20
2022-08-28T20:00:40.436Z,2.00
2022-08-28T20:06:43.139Z,2.10
2022-08-28T20:12:48.382Z,2.28
2022-08-28T20:18:50.935Z,2.30
2022-08-28T20:24:52.855Z,2.13
2022-08-28T20:30:54.800Z,1.80
2022-08-28T20:36:56.610Z,2.00
2022-08-28T20:43:00.032Z,2.28
2022-08-28T20:49:02.930Z,2.47
2022-08-28T20:55:07.602Z,2.33
2022-08-28T21:01:09.392Z,2.30
2022-08-28T21:07:12.829Z,2.40
2022-08-28T21:13:14.895Z,2.33
2022-08-28T21:19:16.885Z,2.30
2022-08-28T21:25:24.549Z,2.30
2022-08-28T21:31:26.386Z,2.40
2022-08-28T21:37:28.546Z,2.50
2022-08-28T21:43:31.747Z,2.60
2022-08-28T21:49:33.567Z,2.72
2022-08-28T21:55:37.040Z,2.60
2022-08-28T22:01:40.408Z,2.70
2022-08-28T22:07:42.509Z,2.70
2022-08-28T22:13:44.534Z,2.70
2022-08-28T22:19:46.672Z,2.80
2022-08-28T22:25:48.683Z,2.72
2022-08-28T22:31:50.437Z,2.90
2022-08-28T22:37:52.282Z,2.97
2022-08-28T22:43:54.071Z,3.08
2022-08-28T22:49:56.242Z,2.90
2022-08-28T22:55:58.974Z,2.72
2022-08-28T23:02:01.431Z,2.90
2022-08-28T23:08:03.428Z,2.83
2022-08-28T23:14:05.971Z,3.15
2022-08-28T23:20:10.101Z,2.90
2022-08-28T23:26:13.380Z,3.30
2022-08-28T23:32:15.231Z,3.33
2022-08-28T23:38:17.136Z,3.08
2022-08-28T23:44:19.964Z,3.40
2022-08-28T23:50:23.020Z,3.58
2022-08-28T23:56:28.139Z,3.25
